LQBK

Details ICAO LQBK (BNX)
Name Banja Luka
Region Bosnia and Herzegovinia
Timezone Europe/Sarajevo (UTC+1.0)
Plans Departing 126
Arriving 144
Stats Elevation 397 ft / 121 m (AMSL)
Location 44.941400° 17.297500°
Runways 1
Magnetic Variation 4.586° E
Sunrise 2022-01-25 06:19:20 UTC / 2022-01-25 07:19:20 Local
Sunset 2022-01-25 15:49:07 UTC / 2022-01-25 16:49:07 Local
Advertisement - Login to hide

Runways

ID Width Length Bearing (true/mag) Surface Threshold Overrun Markings Lighting
17 148 ft / 45 m 8,211 ft / 2,503 m 169.55° / 164.96° CONCRETE 0 ft / 0 m 0 ft / 0 m UK-PREC-APP CENTERLINE EDGE THRESHOLD ALSF-I REIL-OMNI
35 148 ft / 45 m 8,211 ft / 2,503 m 349.55° / 344.97° CONCRETE 0 ft / 0 m 0 ft / 0 m UK-APP CENTERLINE EDGE THRESHOLD SALS REIL-OMNI

Approach Navaids

Runway Type Ident Frequency Range Bearing (true/mag) Slope Elevation
17 LOC-ILS BAL 108.70 MHz 18 nm / 33 km 166.00° / 161.41° - 401 ft / 122 m (AMSL)

Map

Weather


0- 5 10 15 20 25 30 35+ Temperature / °C

Clouds and Precipitation
Forecast for 2022-01-25 18:00 UTC. Updated 5 hours ago

Ground ~20,000 ft ~40,000 ft Winds

METAR

LQBK 252000Z 27002KT CAVOK M03/M05 Q1030 NOSIG

TAF

TAF LQBK 251700Z 2518/2618 VRB02KT CAVOK TX04/2613Z TNM07/2606Z PROB30 TEMPO 2606/2609 2000 BR

Frequencies

Tower 124.17 MHz Banja Luka Tower
Approach 133.07 MHz Banja Luka Approach
Warning: Do not use this data for real-world aviation or navigation. No guarantee of current accuracy is given.